createdAt,value
2022-09-20T00:02:33.537Z,10.40
2022-09-20T00:05:41.771Z,10.33
2022-09-20T00:08:48.803Z,10.26
2022-09-20T00:11:55.158Z,10.42
2022-09-20T00:15:01.378Z,10.18
2022-09-20T00:18:09.559Z,9.67
2022-09-20T00:21:18.214Z,9.50
2022-09-20T00:24:24.497Z,9.49
2022-09-20T00:27:31.469Z,9.51
2022-09-20T00:30:37.891Z,9.38
2022-09-20T00:34:14.762Z,9.46
2022-09-20T00:37:20.995Z,9.56
2022-09-20T00:40:28.183Z,9.65
2022-09-20T00:43:39.761Z,9.56
2022-09-20T00:46:46.925Z,9.58
2022-09-20T00:49:59.949Z,9.43
2022-09-20T00:53:10.922Z,9.16
2022-09-20T00:56:21.605Z,9.56
2022-09-20T00:59:31.966Z,9.60
2022-09-20T01:02:42.337Z,9.45
2022-09-20T01:05:51.907Z,9.41
2022-09-20T01:09:02.694Z,9.19
2022-09-20T01:12:15.124Z,9.11
2022-09-20T01:15:23.531Z,8.93
2022-09-20T01:18:33.050Z,9.12
2022-09-20T01:21:40.837Z,8.85
2022-09-20T01:24:57.888Z,8.66
2022-09-20T01:28:05.621Z,8.59
2022-09-20T01:31:17.014Z,8.88
2022-09-20T01:34:29.786Z,9.04
2022-09-20T01:37:50.639Z,8.39
2022-09-20T01:41:06.260Z,8.81
2022-09-20T01:44:24.034Z,8.62
2022-09-20T01:47:35.278Z,8.37
2022-09-20T01:50:57.071Z,8.51
2022-09-20T01:54:52.996Z,8.67
2022-09-20T01:58:34.046Z,8.61
2022-09-20T02:02:15.837Z,8.48
2022-09-20T02:05:54.598Z,8.38
2022-09-20T02:09:25.274Z,8.19
2022-09-20T02:12:45.362Z,8.07
2022-09-20T02:16:12.526Z,8.06
2022-09-20T02:19:42.755Z,8.45
2022-09-20T02:23:13.073Z,7.96
2022-09-20T02:26:38.131Z,8.38
2022-09-20T02:29:52.787Z,8.42
2022-09-20T02:33:24.599Z,8.07
2022-09-20T02:36:42.342Z,7.90
2022-09-20T02:40:03.516Z,7.89
2022-09-20T02:43:22.818Z,8.11
2022-09-20T02:46:34.849Z,8.11
2022-09-20T02:49:53.531Z,7.81
2022-09-20T02:53:09.853Z,7.84
2022-09-20T02:56:22.244Z,7.88
2022-09-20T02:59:38.956Z,7.80
2022-09-20T03:03:01.633Z,7.82
2022-09-20T03:06:15.986Z,7.65
2022-09-20T03:09:32.379Z,7.36
2022-09-20T03:12:51.351Z,7.69
2022-09-20T03:16:10.579Z,7.74
2022-09-20T03:19:25.795Z,7.81
2022-09-20T03:22:41.804Z,7.77
2022-09-20T03:26:04.071Z,7.63
2022-09-20T03:29:24.258Z,7.66
2022-09-20T03:32:46.713Z,7.78
2022-09-20T03:36:06.186Z,7.69
2022-09-20T03:39:46.180Z,7.65
2022-09-20T03:42:54.108Z,7.85
2022-09-20T03:46:10.534Z,7.81
2022-09-20T03:49:53.381Z,7.72
2022-09-20T03:53:20.423Z,7.86
2022-09-20T03:57:10.367Z,7.86
2022-09-20T04:00:24.105Z,8.11
2022-09-20T04:03:38.533Z,8.19
2022-09-20T04:07:17.034Z,7.85
2022-09-20T04:10:42.795Z,7.88
2022-09-20T04:13:55.983Z,7.77
2022-09-20T04:17:07.971Z,8.00
2022-09-20T04:20:21.361Z,8.21
2022-09-20T04:23:38.307Z,8.37
2022-09-20T04:26:49.793Z,8.21
2022-09-20T04:30:02.273Z,8.61
2022-09-20T04:33:18.805Z,8.68
2022-09-20T04:36:39.698Z,8.68
2022-09-20T04:39:54.422Z,8.76
2022-09-20T04:43:43.327Z,9.02
2022-09-20T04:47:18.643Z,9.05
2022-09-20T04:50:44.269Z,8.97
2022-09-20T04:54:20.383Z,9.13
2022-09-20T04:57:55.094Z,9.15
2022-09-20T05:01:35.869Z,9.23
2022-09-20T05:05:28.448Z,9.14
2022-09-20T05:09:09.135Z,9.12
2022-09-20T05:12:56.543Z,9.23
2022-09-20T05:16:08.813Z,9.25
2022-09-20T05:19:27.742Z,9.30
2022-09-20T05:23:02.859Z,9.67
2022-09-20T05:26:13.806Z,10.15
2022-09-20T05:29:26.572Z,10.18
2022-09-20T05:32:45.439Z,10.09
2022-09-20T05:36:05.447Z,10.69
2022-09-20T05:39:27.982Z,10.15
2022-09-20T05:42:44.335Z,9.89
2022-09-20T05:46:05.123Z,9.83
2022-09-20T05:49:26.167Z,10.21
2022-09-20T05:52:45.834Z,10.57
2022-09-20T05:56:01.111Z,10.83
2022-09-20T05:59:26.723Z,11.11
2022-09-20T06:02:41.580Z,10.54
2022-09-20T06:05:57.933Z,10.91
2022-09-20T06:09:31.378Z,10.73
2022-09-20T06:12:52.966Z,11.35
2022-09-20T06:16:01.837Z,11.45
2022-09-20T06:19:17.658Z,11.54
2022-09-20T06:22:28.982Z,11.02
2022-09-20T06:25:42.961Z,11.13
2022-09-20T06:28:56.425Z,10.86
2022-09-20T06:32:04.295Z,11.08
2022-09-20T06:35:11.323Z,11.13
2022-09-20T06:38:55.279Z,11.30
2022-09-20T06:42:01.985Z,11.29
2022-09-20T06:45:08.495Z,11.56
2022-09-20T06:48:15.690Z,11.66
2022-09-20T06:51:22.215Z,11.94
2022-09-20T06:54:30.503Z,11.86
2022-09-20T06:57:39.047Z,12.07
2022-09-20T07:00:45.467Z,12.29
2022-09-20T07:03:51.562Z,12.35
2022-09-20T07:07:03.307Z,12.92
2022-09-20T07:10:14.911Z,12.61
2022-09-20T07:13:21.566Z,12.33
2022-09-20T07:16:28.116Z,12.56
2022-09-20T07:19:35.290Z,13.01
2022-09-20T07:22:41.856Z,12.87
2022-09-20T07:25:49.490Z,12.95
2022-09-20T07:28:56.675Z,12.44
2022-09-20T07:32:03.177Z,12.39
2022-09-20T07:35:10.190Z,12.79
2022-09-20T07:38:17.186Z,12.73
2022-09-20T07:41:24.575Z,12.80
2022-09-20T07:44:30.767Z,12.97
2022-09-20T07:47:41.245Z,13.20
2022-09-20T07:50:52.482Z,13.25
2022-09-20T07:53:58.803Z,13.05
2022-09-20T07:57:06.935Z,13.38
2022-09-20T08:00:14.408Z,13.67
2022-09-20T08:03:20.718Z,13.79
2022-09-20T08:06:26.985Z,13.83
2022-09-20T08:09:33.410Z,14.11
2022-09-20T08:16:10.523Z,14.79
2022-09-20T08:19:18.958Z,15.82
2022-09-20T08:22:25.510Z,15.67
2022-09-20T08:25:32.008Z,15.42
2022-09-20T08:28:40.988Z,15.64
2022-09-20T08:31:47.334Z,15.60
2022-09-20T08:34:53.734Z,15.52
2022-09-20T08:39:57.183Z,15.34
2022-09-20T08:41:31.067Z,15.68
2022-09-20T08:44:47.887Z,15.77
2022-09-20T08:47:59.470Z,15.32
2022-09-20T08:51:06.947Z,15.75
2022-09-20T08:54:16.374Z,15.68
2022-09-20T08:57:22.274Z,16.11
2022-09-20T09:00:32.407Z,15.93
2022-09-20T09:03:38.422Z,16.24
2022-09-20T09:06:45.618Z,16.05
2022-09-20T09:09:54.150Z,16.14
2022-09-20T09:13:00.910Z,15.94
2022-09-20T09:16:14.950Z,16.35
2022-09-20T09:19:36.306Z,16.29
2022-09-20T09:22:45.247Z,16.41
2022-09-20T09:25:52.455Z,16.01
2022-09-20T09:29:17.618Z,15.96
2022-09-20T09:32:29.382Z,16.44
2022-09-20T09:35:37.578Z,16.15
2022-09-20T09:38:46.314Z,16.22
2022-09-20T09:41:52.591Z,16.98
2022-09-20T09:45:12.396Z,16.47
2022-09-20T09:48:23.802Z,17.10
2022-09-20T09:51:29.943Z,16.78
2022-09-20T09:54:39.590Z,16.93
2022-09-20T09:57:57.912Z,16.89
2022-09-20T10:01:08.198Z,17.21
2022-09-20T10:04:22.671Z,17.56
2022-09-20T10:07:38.654Z,17.41
2022-09-20T10:11:01.753Z,17.53
2022-09-20T10:14:22.087Z,17.32
2022-09-20T10:17:42.575Z,16.85
2022-09-20T10:21:07.886Z,16.92
2022-09-20T10:24:30.719Z,17.17
2022-09-20T10:27:50.808Z,17.06
2022-09-20T10:31:07.636Z,17.66
2022-09-20T10:34:31.710Z,17.24
2022-09-20T10:37:52.009Z,17.15
2022-09-20T10:41:35.748Z,17.84
2022-09-20T10:44:59.071Z,18.27
2022-09-20T10:48:08.414Z,17.96
2022-09-20T10:51:24.381Z,17.84
2022-09-20T10:54:43.092Z,17.74
2022-09-20T10:58:17.853Z,17.61
2022-09-20T11:01:32.527Z,17.74
2022-09-20T11:05:16.795Z,17.79
2022-09-20T11:08:27.950Z,17.98
2022-09-20T11:11:41.253Z,18.33
2022-09-20T11:14:51.231Z,18.01
2022-09-20T11:18:06.192Z,17.84
2022-09-20T11:21:21.001Z,18.54
2022-09-20T11:24:33.638Z,18.11
2022-09-20T11:27:45.906Z,17.75
2022-09-20T11:30:58.201Z,17.44
2022-09-20T11:34:12.170Z,17.73
2022-09-20T11:37:20.065Z,18.32
2022-09-20T11:40:31.169Z,17.85
2022-09-20T11:43:43.285Z,17.99
2022-09-20T11:46:56.652Z,17.83
2022-09-20T11:50:33.142Z,17.83
2022-09-20T11:53:57.342Z,18.38
2022-09-20T11:57:06.084Z,17.98
2022-09-20T12:00:14.456Z,18.03
2022-09-20T12:03:32.261Z,18.03
2022-09-20T12:06:42.657Z,18.53
2022-09-20T12:09:57.381Z,17.94
2022-09-20T12:13:07.211Z,17.99
2022-09-20T12:16:18.376Z,18.01
2022-09-20T12:19:38.961Z,18.13
2022-09-20T12:22:45.154Z,18.58
2022-09-20T12:26:02.072Z,17.86
2022-09-20T12:29:55.434Z,17.94
2022-09-20T12:33:05.119Z,17.85
2022-09-20T12:36:18.956Z,17.91
2022-09-20T12:39:29.904Z,17.70
2022-09-20T12:42:37.767Z,18.10
2022-09-20T12:45:54.370Z,18.17
2022-09-20T12:50:06.867Z,18.39
2022-09-20T12:53:16.868Z,17.87
2022-09-20T12:56:28.133Z,18.45
2022-09-20T12:59:34.830Z,17.90
2022-09-20T13:02:58.403Z,18.31
2022-09-20T13:06:27.758Z,18.40
2022-09-20T13:09:33.920Z,18.42
2022-09-20T13:12:42.457Z,19.02
2022-09-20T13:15:53.503Z,18.03
2022-09-20T13:19:05.833Z,17.93
2022-09-20T13:22:21.062Z,18.62
2022-09-20T13:25:28.584Z,18.12
2022-09-20T13:28:41.628Z,18.60
2022-09-20T13:31:48.560Z,18.28
2022-09-20T13:35:07.793Z,18.48
2022-09-20T13:38:20.476Z,18.07
2022-09-20T13:41:32.652Z,18.07
2022-09-20T13:44:40.127Z,18.21
2022-09-20T13:47:50.677Z,18.03
2022-09-20T13:50:57.716Z,17.98
2022-09-20T13:57:03.360Z,17.91
2022-09-20T14:00:15.615Z,17.59
2022-09-20T14:03:23.222Z,18.59
2022-09-20T14:06:29.896Z,17.99
2022-09-20T14:09:40.147Z,18.18
2022-09-20T14:12:50.333Z,18.73
2022-09-20T14:15:56.090Z,17.80
2022-09-20T14:19:04.073Z,18.23
2022-09-20T14:22:19.209Z,17.87
2022-09-20T14:25:27.725Z,18.88
2022-09-20T14:28:35.318Z,20.97
2022-09-20T14:31:47.729Z,20.09
2022-09-20T14:35:01.707Z,21.23
2022-09-20T14:38:10.436Z,21.49
2022-09-20T14:41:28.909Z,20.61
2022-09-20T14:44:37.617Z,18.40
2022-09-20T14:47:56.879Z,17.46
2022-09-20T14:51:25.504Z,16.89
2022-09-20T14:54:33.776Z,16.67
2022-09-20T14:57:39.937Z,16.73
2022-09-20T15:00:54.156Z,16.37
2022-09-20T15:04:00.935Z,16.32
2022-09-20T15:07:10.590Z,16.46
2022-09-20T15:10:17.136Z,16.32
2022-09-20T15:13:23.378Z,16.09
2022-09-20T15:16:31.200Z,16.05
2022-09-20T15:19:37.290Z,15.91
2022-09-20T15:22:43.779Z,15.73
2022-09-20T15:25:52.148Z,15.98
2022-09-20T15:28:58.252Z,15.72
2022-09-20T15:32:06.440Z,15.64
2022-09-20T15:35:14.142Z,15.37
2022-09-20T15:38:20.573Z,15.47
2022-09-20T15:41:31.316Z,15.16
2022-09-20T15:44:38.170Z,15.15
2022-09-20T15:47:46.838Z,15.05
2022-09-20T15:51:03.820Z,14.77
2022-09-20T15:54:15.282Z,14.56
2022-09-20T15:57:21.435Z,14.57
2022-09-20T16:00:27.880Z,14.36
2022-09-20T16:03:36.624Z,14.35
2022-09-20T16:06:44.575Z,14.22
2022-09-20T16:09:50.873Z,14.27
2022-09-20T16:12:57.177Z,14.17
2022-09-20T16:16:04.122Z,14.23
2022-09-20T16:19:21.671Z,14.14
2022-09-20T16:22:28.089Z,14.06
2022-09-20T16:25:34.359Z,13.98
2022-09-20T16:28:45.208Z,13.97
2022-09-20T16:31:55.371Z,13.87
2022-09-20T16:35:07.203Z,13.94
2022-09-20T16:38:14.204Z,13.89
2022-09-20T16:41:20.191Z,13.84
2022-09-20T16:44:26.507Z,13.70
2022-09-20T16:47:32.786Z,13.62
2022-09-20T16:50:40.251Z,13.58
2022-09-20T16:53:46.256Z,13.53
2022-09-20T16:56:52.785Z,13.56
2022-09-20T16:59:59.029Z,13.51
2022-09-20T17:03:05.151Z,13.39
2022-09-20T17:06:13.647Z,13.47
2022-09-20T17:09:20.305Z,13.57
2022-09-20T17:12:29.094Z,13.48
2022-09-20T17:15:37.802Z,13.48
2022-09-20T17:18:44.896Z,13.33
2022-09-20T17:21:52.946Z,13.19
2022-09-20T17:24:59.188Z,13.23
2022-09-20T17:28:05.238Z,13.05
2022-09-20T17:31:13.658Z,12.83
2022-09-20T17:34:21.770Z,12.73
2022-09-20T17:37:29.732Z,12.56
2022-09-20T17:40:35.689Z,12.35
2022-09-20T17:43:42.694Z,12.18
2022-09-20T17:46:50.751Z,12.15
2022-09-20T17:49:57.226Z,11.92
2022-09-20T17:53:06.254Z,11.78
2022-09-20T17:56:13.351Z,11.95
2022-09-20T17:59:20.480Z,11.68
2022-09-20T18:02:26.403Z,11.73
2022-09-20T18:05:32.590Z,11.64
2022-09-20T18:08:40.834Z,11.65
2022-09-20T18:11:49.776Z,11.71
2022-09-20T18:14:57.025Z,11.56
2022-09-20T18:18:03.412Z,11.48
2022-09-20T18:21:17.554Z,11.31
2022-09-20T18:24:25.877Z,11.13
2022-09-20T18:27:34.122Z,11.18
2022-09-20T18:30:40.708Z,11.07
2022-09-20T18:33:46.799Z,10.90
2022-09-20T18:36:54.566Z,10.68
2022-09-20T18:40:02.563Z,10.83
2022-09-20T18:43:09.486Z,10.95
2022-09-20T18:46:15.535Z,10.86
2022-09-20T18:49:21.815Z,10.83
2022-09-20T18:52:29.734Z,10.82
2022-09-20T18:55:37.773Z,10.79
2022-09-20T18:58:45.077Z,10.80
2022-09-20T19:02:09.027Z,10.85
2022-09-20T19:05:24.343Z,10.82
2022-09-20T19:08:37.202Z,10.14
2022-09-20T19:11:55.395Z,9.99
2022-09-20T19:15:22.741Z,10.12
2022-09-20T19:18:47.763Z,10.40
2022-09-20T19:22:00.514Z,10.33
2022-09-20T19:25:21.803Z,10.32
2022-09-20T19:28:29.894Z,10.05
2022-09-20T19:31:36.370Z,10.12
2022-09-20T19:34:46.852Z,9.87
2022-09-20T19:38:03.446Z,9.88
2022-09-20T19:41:27.565Z,10.07
2022-09-20T19:44:44.692Z,9.78
2022-09-20T19:47:58.400Z,9.48
2022-09-20T19:51:08.214Z,9.57
2022-09-20T19:54:16.138Z,9.36
2022-09-20T19:57:24.342Z,9.81
2022-09-20T20:00:32.609Z,9.70
2022-09-20T20:03:39.296Z,9.67
2022-09-20T20:06:56.178Z,9.63
2022-09-20T20:10:16.618Z,9.06
2022-09-20T20:13:51.347Z,8.92
2022-09-20T20:17:06.796Z,8.20
2022-09-20T20:20:24.217Z,8.36
2022-09-20T20:23:50.053Z,8.83
2022-09-20T20:26:56.222Z,9.13
2022-09-20T20:30:02.658Z,9.20
2022-09-20T20:33:15.409Z,9.01
2022-09-20T20:36:21.768Z,8.05
2022-09-20T20:39:28.872Z,7.46
2022-09-20T20:42:36.806Z,7.69
2022-09-20T20:45:51.092Z,8.67
2022-09-20T20:48:58.676Z,9.08
2022-09-20T20:52:05.902Z,9.25
2022-09-20T20:55:11.908Z,9.11
2022-09-20T20:58:18.228Z,9.23
2022-09-20T21:01:27.272Z,9.18
2022-09-20T21:04:35.395Z,8.76
2022-09-20T21:07:41.544Z,8.82
2022-09-20T21:10:47.842Z,8.44
2022-09-20T21:13:55.273Z,7.42
2022-09-20T21:17:01.538Z,7.83
2022-09-20T21:20:11.099Z,7.86
2022-09-20T21:23:17.456Z,8.18
2022-09-20T21:26:25.333Z,8.20
2022-09-20T21:29:31.844Z,8.91
2022-09-20T21:32:37.935Z,8.88
2022-09-20T21:35:45.717Z,9.05
2022-09-20T21:38:51.971Z,9.08
2022-09-20T21:41:58.354Z,9.04
2022-09-20T21:45:08.598Z,8.99
2022-09-20T21:48:14.646Z,9.10
2022-09-20T21:51:23.079Z,8.64
2022-09-20T21:54:29.481Z,8.13
2022-09-20T21:57:35.817Z,7.70
2022-09-20T22:00:42.100Z,7.77
2022-09-20T22:03:50.542Z,8.45
2022-09-20T22:06:58.518Z,8.49
2022-09-20T22:10:04.813Z,8.56
2022-09-20T22:13:10.769Z,9.01
2022-09-20T22:16:20.082Z,9.03
2022-09-20T22:19:26.514Z,9.23
2022-09-20T22:22:33.821Z,9.18
2022-09-20T22:25:39.803Z,9.28
2022-09-20T22:28:49.903Z,9.47
2022-09-20T22:31:56.038Z,9.05
2022-09-20T22:35:02.031Z,9.24
2022-09-20T22:38:09.636Z,9.43
2022-09-20T22:41:17.661Z,9.30
2022-09-20T22:44:24.025Z,9.39
2022-09-20T22:47:30.457Z,9.22
2022-09-20T22:50:36.754Z,9.25
2022-09-20T22:53:44.901Z,9.32
2022-09-20T22:56:51.285Z,8.67
2022-09-20T22:59:57.678Z,8.67
2022-09-20T23:03:04.041Z,9.01
2022-09-20T23:06:14.689Z,9.12
2022-09-20T23:09:23.595Z,9.26
2022-09-20T23:12:29.938Z,8.88
2022-09-20T23:15:36.366Z,8.91
2022-09-20T23:18:43.229Z,8.55
2022-09-20T23:21:49.393Z,8.75
2022-09-20T23:24:57.111Z,9.08
2022-09-20T23:28:03.490Z,9.30
2022-09-20T23:31:11.588Z,9.57
2022-09-20T23:34:18.584Z,9.47
2022-09-20T23:37:24.921Z,9.12
2022-09-20T23:40:32.580Z,8.83
2022-09-20T23:43:39.726Z,8.83
2022-09-20T23:46:45.573Z,9.11
2022-09-20T23:49:51.723Z,9.30
2022-09-20T23:52:57.980Z,9.38
2022-09-20T23:56:06.686Z,9.03
2022-09-20T23:59:12.568Z,9.34
